Time;durP1;ratioP1;P1;durP2;ratioP2;P2;SDS_P1;SDS_P2;PMS_P1;PMS_P2;Temp;Humidity;BMP_temperature;BMP_pressure;BME280_temperature;BME280_humidity;BME280_pressure;Samples;Min_cycle;Max_cycle;Signal;HPM_P1;HPM_P2
2022/12/30 00:00:00;;;;;;;5.60;1.80;;;;;;;7.84;100.00;99516.53;12202820;19;20059;-79
2022/12/30 00:04:02;;;;;;;7.07;2.03;;;;;;;7.79;100.00;99524.63;12184798;19;20002;-83
2022/12/30 00:08:04;;;;;;;9.43;2.83;;;;;;;7.70;100.00;99519.53;12204268;19;20007;-81
2022/12/30 00:34:42;;;;;;;9.57;2.53;;;;;;;8.08;100.00;99531.88;12236201;19;19999;-82
2022/12/30 00:38:44;;;;;;;6.97;1.98;;;;;;;7.99;100.00;99534.16;12215000;19;20034;-82
2022/12/30 00:47:08;;;;;;;10.95;2.15;;;;;;;7.89;100.00;99544.09;12218932;19;20067;-82
2022/12/30 00:59:50;;;;;;;6.78;1.90;;;;;;;7.77;100.00;99560.53;12204522;19;19999;-83
2022/12/30 01:03:52;;;;;;;8.00;1.73;;;;;;;7.71;100.00;99561.50;12188933;19;20014;-81
2022/12/30 01:07:53;;;;;;;11.50;2.10;;;;;;;7.66;100.00;99545.72;12210205;19;21109;-79
2022/12/30 01:12:07;;;;;;;8.90;2.08;;;;;;;7.60;100.00;99557.66;12211661;19;19999;-81
2022/12/30 01:16:13;;;;;;;6.03;2.08;;;;;;;7.61;100.00;99591.38;12190591;19;20006;-84
2022/12/30 01:20:15;;;;;;;10.27;2.60;;;;;;;7.69;100.00;99602.84;12210285;19;20009;-83
2022/12/30 01:24:16;;;;;;;7.43;1.75;;;;;;;7.79;100.00;99617.88;12187906;19;20010;-79
2022/12/30 01:28:18;;;;;;;7.03;2.42;;;;;;;7.82;100.00;99617.41;12206687;19;20011;-82
2022/12/30 01:32:21;;;;;;;7.53;2.15;;;;;;;7.75;100.00;99621.09;12203793;19;20011;-83
2022/12/30 01:36:23;;;;;;;9.43;1.63;;;;;;;7.63;100.00;99616.69;12183654;19;20062;-82
2022/12/30 01:40:24;;;;;;;10.75;2.40;;;;;;;7.54;100.00;99621.66;12206921;19;20006;-82
2022/12/30 01:44:48;;;;;;;11.88;2.42;;;;;;;7.45;100.00;99642.25;12211036;19;20031;-82
2022/12/30 01:48:51;;;;;;;;;;;;;;;7.38;100.00;99641.53;12200228;19;20007;-77
2022/12/30 01:53:03;;;;;;;6.55;2.17;;;;;;;7.28;100.00;99651.13;12235465;19;19919;-79
2022/12/30 01:57:06;;;;;;;8.73;2.75;;;;;;;7.22;100.00;99643.84;12218517;19;20844;-82
2022/12/30 02:01:08;;;;;;;8.82;2.40;;;;;;;7.21;100.00;99638.59;12190874;19;20062;-81
2022/12/30 02:05:12;;;;;;;9.95;2.50;;;;;;;7.18;100.00;99641.81;12204044;19;20510;-82
2022/12/30 02:09:14;;;;;;;5.65;1.83;;;;;;;7.12;100.00;99629.88;12185609;19;20003;-80
2022/12/30 02:13:17;;;;;;;5.72;1.75;;;;;;;7.10;100.00;99640.22;12202946;19;20018;-81
2022/12/30 02:17:39;;;;;;;8.52;1.70;;;;;;;7.07;100.00;99646.97;12212944;19;20003;-83
2022/12/30 02:22:03;;;;;;;7.65;2.05;;;;;;;7.05;100.00;99654.63;12185280;19;20006;-83
2022/12/30 02:26:04;;;;;;;;;;;;;;;6.98;100.00;99663.97;12205688;19;19998;-81
2022/12/30 02:30:12;;;;;;;8.23;1.77;;;;;;;7.02;100.00;99670.66;12203730;19;19911;-80
2022/12/30 02:35:02;;;;;;;7.95;2.17;;;;;;;6.97;100.00;99670.53;12180342;19;20500;-82
2022/12/30 02:39:39;;;;;;;8.77;1.98;;;;;;;6.93;100.00;99674.78;12197937;19;20002;-82
2022/12/30 02:48:11;;;;;;;9.30;2.20;;;;;;;6.91;100.00;99677.75;12200358;19;20599;-83
2022/12/30 02:52:15;;;;;;;6.50;1.85;;;;;;;6.89;100.00;99677.16;12183624;19;20014;-81
2022/12/30 02:56:17;;;;;;;8.75;2.45;;;;;;;6.87;100.00;99668.34;12206189;19;20017;-79
2022/12/30 03:05:03;;;;;;;10.05;1.98;;;;;;;6.78;100.00;99654.13;12199231;19;20024;-81
2022/12/30 03:09:19;;;;;;;9.32;1.95;;;;;;;6.77;100.00;99641.47;12203893;19;20030;-80
2022/12/30 03:13:50;;;;;;;12.27;2.25;;;;;;;6.77;100.00;99640.63;12181945;19;20003;-79
2022/12/30 03:17:52;;;;;;;10.18;2.00;;;;;;;6.74;100.00;99641.94;12196277;19;20063;-79
2022/12/30 03:21:55;;;;;;;4.07;1.58;;;;;;;6.81;100.00;99653.66;12178119;19;20034;-80
2022/12/30 03:30:20;;;;;;;15.18;2.00;;;;;;;6.88;100.00;99659.03;12174872;19;20014;-79
2022/12/30 03:34:24;;;;;;;15.45;2.75;;;;;;;6.89;100.00;99674.41;12197328;19;20049;-82
2022/12/30 03:38:33;;;;;;;9.63;1.92;;;;;;;6.91;100.00;99674.19;12195897;19;20408;-81
2022/12/30 03:42:34;;;;;;;11.90;1.90;;;;;;;6.89;100.00;99668.94;12178569;19;20006;-81
2022/12/30 03:46:36;;;;;;;11.48;2.20;;;;;;;6.91;100.00;99685.16;12198030;19;20010;-81
2022/12/30 03:50:37;;;;;;;9.07;1.90;;;;;;;6.91;100.00;99685.16;12200703;19;20007;-81
2022/12/30 03:54:40;;;;;;;9.75;2.10;;;;;;;6.91;100.00;99674.19;12175644;19;20428;-81
2022/12/30 03:58:41;;;;;;;8.98;2.63;;;;;;;6.91;100.00;99669.53;12214016;19;20038;-82
2022/12/30 04:02:43;;;;;;;12.52;1.90;;;;;;;6.93;100.00;99672.91;12218817;19;20010;-83
2022/12/30 04:06:45;;;;;;;14.95;2.35;;;;;;;7.08;100.00;99672.50;12196485;19;20010;-82
2022/12/30 04:10:47;;;;;;;6.10;1.80;;;;;;;7.30;100.00;99668.19;12210143;19;20388;-80
2022/12/30 04:14:48;;;;;;;6.95;1.85;;;;;;;7.51;100.00;99668.75;12210249;19;20006;-82
2022/12/30 04:18:50;;;;;;;9.07;1.88;;;;;;;7.63;100.00;99675.09;12187571;19;20006;-80
2022/12/30 04:22:55;;;;;;;8.40;2.17;;;;;;;7.80;100.00;99668.94;12210001;19;20003;-82
2022/12/30 04:26:57;;;;;;;13.32;2.00;;;;;;;7.92;100.00;99681.59;12210653;19;20002;-81
2022/12/30 04:30:58;;;;;;;14.32;2.65;;;;;;;8.06;100.00;99686.88;12186435;19;20358;-80
2022/12/30 04:35:00;;;;;;;7.00;1.85;;;;;;;8.15;100.00;99699.16;12208879;19;20002;-80
2022/12/30 04:39:02;;;;;;;8.57;1.52;;;;;;;8.26;100.00;99689.28;12208005;19;20042;-80
2022/12/30 04:43:04;;;;;;;8.40;2.55;;;;;;;8.34;100.00;99684.28;12187324;19;19999;-79
2022/12/30 04:47:05;;;;;;;12.52;2.17;;;;;;;8.39;100.00;99680.88;12209512;19;20009;-79
2022/12/30 04:51:07;;;;;;;12.85;2.22;;;;;;;8.46;100.00;99678.00;12215372;19;20006;-82
2022/12/30 04:55:09;;;;;;;16.15;2.75;;;;;;;8.47;100.00;99672.25;12183455;19;20034;-80
2022/12/30 04:59:10;;;;;;;4.93;1.35;;;;;;;8.49;100.00;99670.09;12207198;19;20006;-80
2022/12/30 05:03:12;;;;;;;11.57;2.88;;;;;;;8.50;100.00;99673.69;12196372;19;20009;-82
2022/12/30 05:07:13;;;;;;;6.20;1.73;;;;;;;8.51;100.00;99683.59;12209520;19;20018;-81
2022/12/30 05:11:15;;;;;;;10.85;2.30;;;;;;;8.54;100.00;99680.38;12204684;19;20010;-80
2022/12/30 05:15:17;;;;;;;14.57;2.63;;;;;;;8.51;100.00;99689.94;12184610;19;20010;-80
2022/12/30 05:19:19;;;;;;;9.03;2.37;;;;;;;8.43;100.00;99688.38;12205612;19;19998;-81
2022/12/30 05:27:40;;;;;;;6.20;1.90;;;;;;;8.44;100.00;99695.53;12229837;19;20079;-83
2022/12/30 05:31:43;;;;;;;8.13;1.90;;;;;;;8.46;100.00;99699.97;12246988;19;20011;-81
2022/12/30 05:35:47;;;;;;;7.20;1.80;;;;;;;8.42;100.00;99694.94;12212047;19;20011;-82
2022/12/30 05:39:49;;;;;;;8.07;2.67;;;;;;;8.41;100.00;99693.25;12185500;19;20011;-81
2022/12/30 05:43:51;;;;;;;7.95;1.98;;;;;;;8.46;100.00;99711.78;12207081;19;20560;-81
2022/12/30 05:47:52;;;;;;;5.85;1.77;;;;;;;8.40;100.00;99716.31;12208751;19;20055;-82
2022/12/30 05:51:54;;;;;;;7.93;1.90;;;;;;;8.42;100.00;99710.59;12187604;19;20026;-80
2022/12/30 05:55:56;;;;;;;6.88;1.63;;;;;;;8.42;100.00;99716.91;12207147;19;20002;-82
2022/12/30 05:59:57;;;;;;;15.68;3.53;;;;;;;8.39;100.00;99719.31;12204610;19;20043;-82
2022/12/30 06:03:59;;;;;;;7.93;2.15;;;;;;;8.25;100.00;99713.16;12185575;19;20046;-80
2022/12/30 06:08:01;;;;;;;7.50;2.10;;;;;;;8.14;100.00;99706.56;12201584;19;20006;-78
2022/12/30 06:12:02;;;;;;;7.63;1.63;;;;;;;8.07;100.00;99730.56;12206567;19;19999;-80
2022/12/30 06:16:04;;;;;;;12.27;2.25;;;;;;;8.07;100.00;99721.50;12182720;19;20039;-81
2022/12/30 06:20:07;;;;;;;11.88;2.88;;;;;;;8.10;100.00;99727.34;12204369;19;20007;-80
2022/12/30 06:24:08;;;;;;;8.95;2.35;;;;;;;8.07;100.00;99722.31;12199664;19;20010;-82
2022/12/30 06:28:10;;;;;;;9.25;1.88;;;;;;;8.03;100.00;99717.53;12182251;19;20067;-82
2022/12/30 06:32:12;;;;;;;9.23;2.28;;;;;;;8.08;100.00;99715.75;12203040;19;20011;-81
2022/12/30 06:36:13;;;;;;;8.48;4.60;;;;;;;8.10;100.00;99710.88;12182217;19;20007;-81
2022/12/30 06:40:15;;;;;;;7.32;2.05;;;;;;;8.11;100.00;99709.78;12201388;19;20010;-80
2022/12/30 06:44:16;;;;;;;9.02;2.58;;;;;;;8.10;100.00;99701.81;12199566;19;20014;-80
2022/12/30 06:48:18;;;;;;;7.03;2.10;;;;;;;8.08;100.00;99699.28;12179581;19;20003;-81
2022/12/30 06:52:19;;;;;;;10.30;1.80;;;;;;;8.09;100.00;99698.22;12201216;19;20062;-81
2022/12/30 06:56:21;;;;;;;11.23;2.67;;;;;;;8.07;100.00;99696.78;12201591;19;20371;-80
2022/12/30 07:00:23;;;;;;;8.07;2.30;;;;;;;8.11;100.00;99698.81;12179844;19;20010;-82
2022/12/30 07:04:24;;;;;;;9.50;2.10;;;;;;;8.15;100.00;99700.03;12202888;19;20356;-81
2022/12/30 07:08:26;;;;;;;7.95;2.15;;;;;;;8.12;100.00;99699.66;12202145;19;20006;-80
2022/12/30 07:12:27;;;;;;;10.65;2.33;;;;;;;8.07;100.00;99705.84;12182402;19;20371;-81
2022/12/30 07:16:29;;;;;;;8.48;2.40;;;;;;;8.03;100.00;99704.66;12204349;19;20119;-79
2022/12/30 07:20:31;;;;;;;6.80;2.30;;;;;;;7.97;100.00;99702.84;12204221;19;20569;-82
2022/12/30 07:24:32;;;;;;;7.38;2.83;;;;;;;7.85;100.00;99691.88;12180459;19;19996;-81
2022/12/30 07:28:34;;;;;;;9.60;2.55;;;;;;;7.80;100.00;99696.38;12204360;19;20010;-79
2022/12/30 07:32:36;;;;;;;10.77;2.50;;;;;;;7.82;100.00;99696.97;12213254;19;20002;-81
2022/12/30 07:36:37;;;;;;;7.00;1.92;;;;;;;7.91;100.00;99703.78;12206253;19;20011;-80
2022/12/30 07:40:39;;;;;;;6.65;1.90;;;;;;;7.96;100.00;99703.91;12238032;19;20002;-78
2022/12/30 07:44:42;;;;;;;7.53;2.00;;;;;;;7.88;100.00;99694.13;12240494;19;20038;-79
2022/12/30 07:48:43;;;;;;;8.45;1.98;;;;;;;7.85;100.00;99696.50;12202436;19;20460;-81
2022/12/30 07:52:45;;;;;;;10.82;2.47;;;;;;;7.86;100.00;99693.53;12215157;19;20101;-80
2022/12/30 07:56:47;;;;;;;9.45;2.13;;;;;;;7.84;100.00;99690.19;12215874;19;20007;-82
2022/12/30 08:00:49;;;;;;;6.47;2.30;;;;;;;7.83;100.00;99698.66;12194498;19;20021;-83
2022/12/30 08:04:51;;;;;;;10.07;2.30;;;;;;;7.78;100.00;99706.75;12214293;19;20018;-81
2022/12/30 08:08:54;;;;;;;7.22;1.65;;;;;;;7.84;100.00;99692.91;12213885;19;19999;-80
2022/12/30 08:12:57;;;;;;;3.78;1.40;;;;;;;7.83;100.00;99684.94;12187560;19;20005;-83
2022/12/30 08:16:59;;;;;;;6.40;1.70;;;;;;;7.91;100.00;99684.56;12210488;19;19998;-82
2022/12/30 08:21:03;;;;;;;5.35;2.00;;;;;;;7.95;100.00;99686.63;12214726;19;20062;-79
2022/12/30 08:25:05;;;;;;;7.60;1.67;;;;;;;8.03;100.00;99681.84;12191156;19;20010;-82
2022/12/30 08:29:06;;;;;;;5.25;1.83;;;;;;;8.08;100.00;99684.72;12209998;19;20038;-80
2022/12/30 08:33:09;;;;;;;5.43;1.80;;;;;;;8.09;100.00;99673.53;12210759;19;20023;-81
2022/12/30 08:37:11;;;;;;;3.92;1.70;;;;;;;8.20;100.00;99660.88;12190890;19;20076;-81
2022/12/30 08:41:16;;;;;;;5.45;1.60;;;;;;;8.25;100.00;99651.94;12211946;19;20038;-82
2022/12/30 08:45:18;;;;;;;4.35;1.83;;;;;;;8.33;100.00;99648.81;12189608;19;20006;-82
2022/12/30 08:49:20;;;;;;;4.07;1.42;;;;;;;8.42;100.00;99647.44;12212879;19;20002;-80
2022/12/30 08:53:22;;;;;;;6.60;1.50;;;;;;;8.49;100.00;99636.31;12203822;19;20107;-81
2022/12/30 08:57:24;;;;;;;4.82;1.80;;;;;;;8.58;100.00;99619.22;12183836;19;20014;-81
2022/12/30 09:01:33;;;;;;;3.10;1.13;;;;;;;8.64;100.00;99615.50;12198215;19;20050;-83
2022/12/30 09:05:35;;;;;;;2.70;1.30;;;;;;;8.73;100.00;99621.47;12190034;19;20078;-83
2022/12/30 09:09:38;;;;;;;4.97;1.43;;;;;;;8.82;100.00;99619.19;12190558;19;20010;-79
2022/12/30 09:13:42;;;;;;;3.60;1.20;;;;;;;8.96;100.00;99615.06;12206165;19;20109;-82
2022/12/30 09:17:43;;;;;;;2.10;1.02;;;;;;;9.04;100.00;99611.94;12210093;19;20006;-79
2022/12/30 09:21:45;;;;;;;2.65;0.80;;;;;;;9.09;100.00;99612.03;12189460;19;20354;-83
2022/12/30 09:25:47;;;;;;;5.10;1.05;;;;;;;9.24;100.00;99596.91;12210644;19;20007;-81
2022/12/30 09:29:49;;;;;;;1.17;0.70;;;;;;;9.26;100.00;99601.09;12209276;19;20007;-82
2022/12/30 09:33:50;;;;;;;1.75;0.75;;;;;;;9.31;100.00;99586.59;12189249;19;20378;-84
2022/12/30 09:37:52;;;;;;;3.38;1.15;;;;;;;9.40;100.00;99587.00;12211320;19;20003;-84
2022/12/30 09:46:46;;;;;;;2.80;0.60;;;;;;;9.41;100.00;99562.03;12192012;19;20337;-81
2022/12/30 09:50:53;;;;;;;2.55;0.60;;;;;;;9.52;100.00;99550.13;12208929;19;20106;-81
2022/12/30 09:55:11;;;;;;;1.80;0.70;;;;;;;9.65;100.00;99537.13;12186583;19;20043;-81
2022/12/30 09:59:32;;;;;;;2.95;0.90;;;;;;;9.71;100.00;99538.88;12208422;19;20011;-84
2022/12/30 10:03:33;;;;;;;1.92;0.75;;;;;;;9.81;100.00;99528.00;12186702;19;20098;-82
2022/12/30 10:08:12;;;;;;;2.45;0.68;;;;;;;10.03;100.00;99520.66;12206025;19;20023;-81
2022/12/30 10:12:32;;;;;;;1.45;0.47;;;;;;;10.18;100.00;99521.97;12211968;19;20038;-80
2022/12/30 10:17:13;;;;;;;1.90;0.45;;;;;;;10.31;100.00;99518.84;12184305;19;20007;-80
2022/12/30 10:21:30;;;;;;;2.63;0.57;;;;;;;10.44;100.00;99518.47;12184138;19;20015;-81
2022/12/30 10:25:48;;;;;;;1.30;0.50;;;;;;;10.55;97.89;99522.19;12231872;19;20435;-82
2022/12/30 10:29:53;;;;;;;3.05;0.95;;;;;;;10.72;97.63;99513.84;12251330;19;20004;-82
2022/12/30 10:34:12;;;;;;;1.77;0.65;;;;;;;10.75;92.81;99509.75;12190386;19;20021;-83
2022/12/30 10:38:17;;;;;;;3.22;0.60;;;;;;;10.91;93.41;99503.28;12207989;19;20022;-82
2022/12/30 10:42:39;;;;;;;1.85;0.55;;;;;;;11.06;93.15;99488.84;12191776;19;20007;-81
2022/12/30 10:47:20;;;;;;;2.10;0.70;;;;;;;11.06;89.90;99486.91;12210919;19;20048;-80
2022/12/30 10:51:24;;;;;;;0.95;0.55;;;;;;;10.97;88.35;99460.91;12194144;19;20006;-81
2022/12/30 10:55:29;;;;;;;3.10;0.50;;;;;;;11.01;87.88;99441.94;12212753;19;20006;-83
2022/12/30 10:59:34;;;;;;;3.03;0.60;;;;;;;11.09;87.93;99422.13;12204986;19;20384;-81
2022/12/30 11:03:44;;;;;;;1.55;0.57;;;;;;;11.17;87.77;99424.41;12181498;19;20039;-81
2022/12/30 11:07:57;;;;;;;2.42;0.60;;;;;;;11.26;85.84;99427.53;12200801;19;20006;-83
2022/12/30 11:16:41;;;;;;;2.22;0.80;;;;;;;11.54;84.74;99429.09;12173872;19;20010;-79
2022/12/30 11:20:51;;;;;;;2.10;1.05;;;;;;;11.65;83.00;99417.03;12238030;19;20039;-82
2022/12/30 11:24:57;;;;;;;3.45;0.60;;;;;;;11.67;81.07;99414.03;12191267;19;20002;-82
2022/12/30 11:29:08;;;;;;;3.22;0.60;;;;;;;11.69;80.67;99401.63;12206754;19;19999;-81
2022/12/30 11:33:21;;;;;;;2.10;0.45;;;;;;;11.55;77.69;99397.66;12203117;19;20011;-81
2022/12/30 11:37:36;;;;;;;3.38;0.73;;;;;;;11.63;79.94;99399.94;12177919;19;20030;-80
2022/12/30 11:41:51;;;;;;;0.93;0.40;;;;;;;11.63;77.02;99394.41;12203319;19;20046;-80
2022/12/30 11:45:55;;;;;;;1.83;0.60;;;;;;;11.58;78.87;99377.81;12181883;19;20017;-81
2022/12/30 11:49:57;;;;;;;4.35;0.80;;;;;;;11.57;78.13;99385.28;12203644;19;20010;-82
2022/12/30 11:54:05;;;;;;;1.93;0.60;;;;;;;11.42;76.03;99379.63;12200105;19;20006;-80
2022/12/30 11:58:12;;;;;;;3.92;0.55;;;;;;;11.44;77.21;99351.78;12177986;19;20023;-78
2022/12/30 12:02:24;;;;;;;3.78;0.63;;;;;;;11.52;78.23;99351.28;12201045;19;20731;-80
2022/12/30 12:06:27;;;;;;;2.53;0.90;;;;;;;11.53;78.56;99350.19;12178179;19;20007;-81
2022/12/30 12:10:34;;;;;;;2.03;0.45;;;;;;;11.43;76.29;99339.94;12199635;19;20353;-81
2022/12/30 12:15:04;;;;;;;5.40;1.00;;;;;;;11.45;77.47;99320.34;12202784;19;20010;-81
2022/12/30 12:19:20;;;;;;;1.30;0.60;;;;;;;11.45;76.47;99315.66;12181120;19;20341;-80
2022/12/30 12:23:44;;;;;;;3.80;0.73;;;;;;;11.43;75.74;99311.50;12213718;19;20007;-80
2022/12/30 12:27:47;;;;;;;;;;;;;;;11.48;76.38;99292.22;12198810;19;20006;-79
2022/12/30 12:32:16;;;;;;;0.40;0.40;;;;;;;11.54;73.98;99283.72;12225694;19;20335;-81
2022/12/30 12:37:01;;;;;;;2.55;0.77;;;;;;;11.66;74.50;99266.06;12198027;19;20019;-81
2022/12/30 12:41:32;;;;;;;4.00;0.75;;;;;;;11.67;72.68;99273.28;12222066;19;20049;-79
2022/12/30 12:45:36;;;;;;;3.92;0.82;;;;;;;11.76;74.90;99271.66;12190523;19;20017;-80
2022/12/30 12:49:46;;;;;;;4.18;0.73;;;;;;;11.78;73.03;99259.22;12209188;19;20019;-79
2022/12/30 12:54:02;;;;;;;5.15;0.77;;;;;;;11.81;73.65;99246.81;12207265;19;21273;-79
2022/12/30 12:58:45;;;;;;;3.90;0.75;;;;;;;11.70;72.30;99232.16;12181632;19;20027;-78
2022/12/30 13:02:59;;;;;;;5.07;1.00;;;;;;;11.70;73.08;99212.00;12206017;19;21518;-79
2022/12/30 13:07:24;;;;;;;4.55;0.90;;;;;;;11.63;72.97;99213.09;12183196;19;20093;-79
2022/12/30 13:11:51;;;;;;;3.53;0.93;;;;;;;11.56;73.14;99209.75;12204279;19;20014;-79
2022/12/30 13:16:02;;;;;;;2.38;1.00;;;;;;;11.54;74.34;99192.66;12182716;19;20007;-78
2022/12/30 13:20:16;;;;;;;3.15;0.80;;;;;;;11.45;70.58;99193.44;12203470;19;20018;-80
2022/12/30 13:24:29;;;;;;;2.70;0.60;;;;;;;11.50;72.92;99172.19;12182460;19;20011;-79
2022/12/30 13:28:33;;;;;;;2.65;0.47;;;;;;;11.43;72.71;99157.84;12194440;19;20006;-77
2022/12/30 13:32:41;;;;;;;2.13;0.60;;;;;;;11.38;71.91;99150.38;12196848;19;20030;-79
2022/12/30 13:37:28;;;;;;;2.22;0.85;;;;;;;11.36;71.22;99124.16;12172935;19;20354;-79
2022/12/30 13:41:52;;;;;;;1.20;0.50;;;;;;;11.34;71.54;99129.97;12198090;19;20010;-80
2022/12/30 13:45:57;;;;;;;2.58;0.73;;;;;;;11.36;71.54;99116.72;12180826;19;20014;-78
2022/12/30 13:50:01;;;;;;;2.05;0.70;;;;;;;11.28;70.93;99106.22;12205728;19;20874;-81
2022/12/30 13:54:30;;;;;;;0.75;0.40;;;;;;;11.32;70.81;99104.56;12205229;19;20030;-79
2022/12/30 13:58:37;;;;;;;1.98;0.50;;;;;;;11.23;70.71;99097.94;12234604;19;19994;-79
2022/12/30 14:02:45;;;;;;;2.20;0.60;;;;;;;11.29;71.99;99094.09;12256008;19;19995;-77
2022/12/30 14:06:50;;;;;;;4.65;0.70;;;;;;;11.29;72.39;99087.75;12192278;19;20027;-80
2022/12/30 14:11:00;;;;;;;0.80;0.50;;;;;;;11.23;71.79;99086.06;12200084;19;19998;-80
2022/12/30 14:15:37;;;;;;;1.92;0.68;;;;;;;11.24;71.57;99083.03;12202862;19;20011;-81
2022/12/30 14:20:21;;;;;;;1.85;1.05;;;;;;;11.26;71.43;99074.50;12177325;19;20041;-80
2022/12/30 14:24:29;;;;;;;2.97;0.95;;;;;;;11.28;72.00;99077.81;12178789;19;20003;-79
2022/12/30 14:28:44;;;;;;;2.28;0.80;;;;;;;11.30;72.32;99070.94;12204114;19;20043;-78
2022/12/30 14:32:46;;;;;;;2.28;1.10;;;;;;;11.35;73.54;99056.31;12200483;19;20075;-79
2022/12/30 14:36:58;;;;;;;2.13;0.90;;;;;;;11.33;74.80;99058.50;12173327;19;20377;-79
2022/12/30 14:41:07;;;;;;;5.97;1.80;;;;;;;11.27;76.64;99046.63;12208098;19;19998;-82
2022/12/30 14:45:21;;;;;;;2.50;0.93;;;;;;;11.16;78.49;99056.84;12243569;19;20496;-80
2022/12/30 14:49:55;;;;;;;3.60;1.20;;;;;;;11.11;82.32;99056.81;12186502;19;20010;-80
2022/12/30 14:53:57;;;;;;;1.85;0.88;;;;;;;10.92;84.60;99048.22;12203729;19;20038;-81
2022/12/30 14:58:12;;;;;;;0.93;0.63;;;;;;;10.77;88.50;99048.16;12185366;19;20092;-81
2022/12/30 15:02:20;;;;;;;1.95;0.63;;;;;;;10.62;91.55;99037.06;12203860;19;20728;-82
2022/12/30 15:06:22;;;;;;;1.88;0.77;;;;;;;10.43;95.90;99037.53;12189198;19;20010;-84
2022/12/30 15:10:36;;;;;;;2.78;0.60;;;;;;;10.32;98.80;99035.84;12206884;19;20692;-82
2022/12/30 15:14:45;;;;;;;1.33;0.80;;;;;;;10.20;100.00;99013.16;12197613;19;20022;-83
2022/12/30 15:18:51;;;;;;;3.50;1.02;;;;;;;10.08;100.00;99013.34;12179866;19;20002;-81
2022/12/30 15:22:53;;;;;;;2.63;0.73;;;;;;;9.96;100.00;99001.72;12199679;19;20036;-83
2022/12/30 15:26:55;;;;;;;1.55;1.30;;;;;;;9.93;100.00;98994.00;12210390;19;20015;-79
2022/12/30 15:30:58;;;;;;;1.75;1.10;;;;;;;9.93;100.00;98989.31;12230333;19;19995;-79
2022/12/30 15:35:15;;;;;;;;;;;;;;;9.94;100.00;98970.91;12217227;19;20058;-80
2022/12/30 15:39:19;;;;;;;2.20;0.77;;;;;;;9.91;100.00;98972.25;12198249;19;19910;-80
2022/12/30 15:43:21;;;;;;;1.88;0.70;;;;;;;9.88;100.00;98958.22;12178571;19;20047;-81
2022/12/30 15:47:26;;;;;;;2.45;1.00;;;;;;;9.91;100.00;98960.44;12199071;19;20023;-83
2022/12/30 15:51:35;;;;;;;2.20;1.00;;;;;;;9.95;100.00;98967.88;12178606;19;20018;-82
2022/12/30 15:55:40;;;;;;;3.58;1.20;;;;;;;10.03;100.00;98953.59;12162881;19;20124;-83
2022/12/30 15:59:51;;;;;;;1.67;0.77;;;;;;;10.12;100.00;98953.09;12211733;19;20006;-82
2022/12/30 16:04:08;;;;;;;2.50;0.90;;;;;;;10.12;100.00;98955.84;12193453;19;20018;-83
2022/12/30 16:08:16;;;;;;;2.63;1.17;;;;;;;10.16;100.00;98956.97;12211711;19;20023;-84
2022/12/30 16:12:36;;;;;;;3.08;1.20;;;;;;;10.26;100.00;98946.00;12209220;19;20006;-81
2022/12/30 16:16:38;;;;;;;2.63;0.98;;;;;;;10.44;100.00;98955.72;12216489;19;20597;-82
2022/12/30 16:20:59;;;;;;;2.10;1.15;;;;;;;10.58;100.00;98934.03;12211726;19;20011;-82
2022/12/30 16:25:15;;;;;;;3.65;1.30;;;;;;;10.64;100.00;98932.94;12194414;19;20017;-82
2022/12/30 16:29:22;;;;;;;2.65;1.25;;;;;;;10.70;100.00;98929.91;12213970;19;20066;-83
2022/12/30 16:33:24;;;;;;;2.63;1.10;;;;;;;10.77;100.00;98921.41;12192044;19;20006;-83
2022/12/30 16:37:34;;;;;;;1.83;1.00;;;;;;;10.82;100.00;98926.91;12209421;19;20030;-82
2022/12/30 16:41:52;;;;;;;3.65;1.52;;;;;;;10.82;100.00;98926.91;12209746;19;20002;-81
2022/12/30 16:45:55;;;;;;;2.13;1.60;;;;;;;10.80;100.00;98942.09;12189935;19;20820;-85
2022/12/30 16:50:00;;;;;;;3.95;1.30;;;;;;;10.72;100.00;98932.41;12210519;19;20103;-83
2022/12/30 16:54:04;;;;;;;1.85;1.20;;;;;;;10.45;100.00;98933.44;12211976;19;20003;-81
2022/12/30 16:58:11;;;;;;;3.72;1.63;;;;;;;10.24;100.00;98949.03;12188554;19;20044;-82
2022/12/30 17:02:23;;;;;;;2.28;1.35;;;;;;;10.08;100.00;98954.72;12214873;19;20007;-82
2022/12/30 17:06:26;;;;;;;2.92;1.35;;;;;;;10.09;100.00;98950.88;12187890;19;20017;-81
2022/12/30 17:14:48;;;;;;;4.53;1.95;;;;;;;10.02;100.00;98945.59;12206729;19;20440;-81
2022/12/30 17:18:52;;;;;;;10.93;3.30;;;;;;;10.09;100.00;98957.22;12185651;19;20007;-83
2022/12/30 17:22:57;;;;;;;7.18;2.67;;;;;;;10.16;100.00;98957.78;12207202;19;20010;-83
2022/12/30 17:26:59;;;;;;;3.25;2.10;;;;;;;10.17;100.00;98964.13;12211928;19;19998;-84
2022/12/30 17:31:01;;;;;;;2.60;1.60;;;;;;;10.18;100.00;98963.88;12189475;19;20026;-85
2022/12/30 17:35:03;;;;;;;5.00;2.03;;;;;;;10.15;100.00;98985.59;12210021;19;20006;-82
2022/12/30 17:39:05;;;;;;;8.77;2.20;;;;;;;10.14;100.00;98976.53;12209200;19;20010;-85
2022/12/30 17:43:09;;;;;;;5.50;2.93;;;;;;;10.21;100.00;98979.03;12199350;19;20007;-83
2022/12/30 17:47:14;;;;;;;4.03;2.28;;;;;;;10.16;100.00;98987.25;12218379;19;20040;-85
2022/12/30 17:51:23;;;;;;;4.95;2.08;;;;;;;10.20;100.00;98989.22;12206032;19;20023;-85
2022/12/30 17:55:26;;;;;;;3.72;2.25;;;;;;;10.27;100.00;98997.25;12187058;19;20006;-83
2022/12/30 17:59:29;;;;;;;5.75;3.35;;;;;;;10.30;100.00;98995.91;12208631;19;20027;-84
2022/12/30 18:03:31;;;;;;;4.47;2.58;;;;;;;10.33;100.00;99009.97;12182423;19;20042;-83
2022/12/30 18:07:33;;;;;;;5.65;2.90;;;;;;;10.36;100.00;99006.66;12207112;19;20079;-83
2022/12/30 18:11:35;;;;;;;5.83;2.83;;;;;;;10.35;100.00;99005.03;12206660;19;20077;-83
2022/12/30 18:15:39;;;;;;;5.03;3.07;;;;;;;10.39;100.00;98997.88;12185535;19;20003;-82
2022/12/30 18:19:41;;;;;;;5.40;2.95;;;;;;;10.47;100.00;98991.84;12206799;19;20010;-84
2022/12/30 18:23:44;;;;;;;5.85;3.10;;;;;;;10.46;100.00;99003.94;12197393;19;20018;-83
2022/12/30 18:27:45;;;;;;;7.70;2.92;;;;;;;10.50;100.00;98996.00;12183890;19;20070;-81
2022/12/30 18:31:48;;;;;;;5.00;3.23;;;;;;;10.53;100.00;99000.97;12203570;19;20011;-82
2022/12/30 18:35:55;;;;;;;6.30;3.40;;;;;;;10.60;100.00;99014.47;12203515;19;20270;-83
2022/12/30 18:39:57;;;;;;;5.03;3.30;;;;;;;10.57;100.00;99006.75;12187235;19;20185;-84
2022/12/30 18:44:07;;;;;;;5.30;3.53;;;;;;;10.59;100.00;98999.03;12214577;19;20031;-81
2022/12/30 18:48:08;;;;;;;6.15;3.85;;;;;;;10.59;100.00;98997.13;12214813;19;20050;-83
2022/12/30 18:52:12;;;;;;;4.63;2.33;;;;;;;10.58;100.00;99002.91;12193861;19;20097;-83
2022/12/30 18:56:17;;;;;;;6.07;3.25;;;;;;;10.69;100.00;99018.38;12217311;19;20006;-84
2022/12/30 19:00:19;;;;;;;5.75;3.55;;;;;;;10.80;100.00;99009.03;12191573;19;20008;-83
2022/12/30 19:04:20;;;;;;;6.93;3.57;;;;;;;10.81;100.00;99021.72;12202141;19;20010;-81
2022/12/30 19:08:22;;;;;;;8.40;3.80;;;;;;;10.86;100.00;99024.50;12195110;19;20010;-81
2022/12/30 19:12:24;;;;;;;6.53;3.95;;;;;;;10.84;100.00;99021.19;12175666;19;19999;-84
2022/12/30 19:16:31;;;;;;;8.27;4.15;;;;;;;10.89;100.00;99037.75;12194848;19;20373;-83
2022/12/30 19:20:34;;;;;;;9.30;4.45;;;;;;;10.90;100.00;99044.91;12195781;19;20369;-83
2022/12/30 19:24:36;;;;;;;7.03;4.25;;;;;;;10.91;100.00;99045.72;12163558;19;20598;-81
2022/12/30 19:28:40;;;;;;;7.88;4.57;;;;;;;10.93;100.00;99046.28;12193656;19;20089;-83
2022/12/30 19:32:41;;;;;;;7.03;4.15;;;;;;;10.95;100.00;99047.69;12191828;19;20010;-80
2022/12/30 19:36:43;;;;;;;7.70;4.45;;;;;;;11.01;100.00;99051.28;12173007;19;20018;-83
2022/12/30 19:40:45;;;;;;;6.57;4.27;;;;;;;10.98;100.00;99042.72;12195965;19;20099;-84
2022/12/30 19:44:47;;;;;;;8.25;4.60;;;;;;;11.00;100.00;99033.06;12195489;19;20022;-84
2022/12/30 19:48:49;;;;;;;6.18;4.03;;;;;;;11.06;100.00;99040.25;12183187;19;20034;-80
2022/12/30 19:52:52;;;;;;;7.03;3.90;;;;;;;11.14;100.00;99047.16;12197705;19;20014;-83
2022/12/30 19:56:54;;;;;;;8.82;4.07;;;;;;;11.18;100.00;99031.72;12197259;19;20255;-81
2022/12/30 20:00:56;;;;;;;7.13;4.43;;;;;;;11.21;100.00;99038.63;12183381;19;20002;-81
2022/12/30 20:04:58;;;;;;;6.30;3.10;;;;;;;11.26;100.00;99050.50;12201820;19;20460;-81
2022/12/30 20:09:01;;;;;;;8.27;3.38;;;;;;;11.35;100.00;99056.31;12203116;19;20021;-80
2022/12/30 20:13:02;;;;;;;7.57;3.42;;;;;;;11.38;100.00;99053.81;12182050;19;20028;-82